Time;durP1;ratioP1;P1;durP2;ratioP2;P2;SDS_P1;SDS_P2;PMS_P1;PMS_P2;Temp;Humidity;BMP_temperature;BMP_pressure;BME280_temperature;BME280_humidity;BME280_pressure;Samples;Min_cycle;Max_cycle;Signal;HPM_P1;HPM_P2
2022/04/29 00:02:28;;;;;;;15.23;7.38;;;;;;;8.77;81.40;102816.50;5347606;27;20030;-62
2022/04/29 00:04:59;;;;;;;15.00;7.38;;;;;;;8.79;82.39;102819.09;5348399;27;20054;-62
2022/04/29 00:07:30;;;;;;;16.30;7.85;;;;;;;8.71;81.64;102816.72;5343637;27;20276;-62
2022/04/29 00:10:02;;;;;;;14.27;7.57;;;;;;;8.68;82.33;102818.63;5342733;27;20050;-62
2022/04/29 00:12:33;;;;;;;12.75;7.43;;;;;;;8.73;84.44;102812.22;5346990;27;20039;-62
2022/04/29 00:15:05;;;;;;;16.67;7.57;;;;;;;8.61;82.86;102804.66;5340574;27;20046;-62
2022/04/29 00:17:37;;;;;;;20.40;8.15;;;;;;;8.65;82.80;102801.00;5344303;27;20049;-62
2022/04/29 00:20:10;;;;;;;15.35;7.72;;;;;;;8.55;83.18;102802.25;5343037;27;20190;-62
2022/04/29 00:22:44;;;;;;;15.52;7.60;;;;;;;8.51;82.73;102806.78;5339047;27;20035;-62
2022/04/29 00:25:16;;;;;;;16.48;8.20;;;;;;;8.51;83.06;102812.13;5339021;27;20030;-62
2022/04/29 00:27:47;;;;;;;15.52;7.65;;;;;;;8.49;83.53;102807.78;5343689;27;21433;-62
2022/04/29 00:30:19;;;;;;;12.90;7.72;;;;;;;8.46;83.26;102808.78;5343361;27;20042;-62
2022/04/29 00:32:50;;;;;;;14.07;7.47;;;;;;;8.39;83.93;102808.06;5341459;27;20030;-62
2022/04/29 00:35:22;;;;;;;14.63;8.00;;;;;;;8.40;84.39;102812.50;5352817;27;20034;-62
2022/04/29 00:37:55;;;;;;;17.17;8.20;;;;;;;8.30;84.35;102805.75;5349835;27;20034;-62
2022/04/29 00:40:29;;;;;;;12.00;7.53;;;;;;;8.31;84.83;102801.31;5349158;27;20039;-62
2022/04/29 00:43:00;;;;;;;13.32;7.85;;;;;;;8.21;84.72;102798.97;5344938;27;20056;-62
2022/04/29 00:45:31;;;;;;;18.05;8.35;;;;;;;8.18;84.94;102800.88;5341652;27;20399;-62
2022/04/29 00:48:03;;;;;;;13.35;8.00;;;;;;;8.14;85.77;102796.59;5330112;27;20098;-62
2022/04/29 00:50:35;;;;;;;14.25;8.18;;;;;;;8.18;85.11;102798.19;5344901;27;20026;-62
2022/04/29 00:53:09;;;;;;;16.60;8.48;;;;;;;8.16;85.74;102794.72;5348033;27;20315;-62
2022/04/29 00:55:44;;;;;;;13.98;7.68;;;;;;;8.19;85.71;102792.84;5349340;27;20130;-62
2022/04/29 00:58:20;;;;;;;13.82;8.13;;;;;;;8.09;85.38;102795.88;5341527;27;20075;-62
2022/04/29 01:00:52;;;;;;;15.57;7.82;;;;;;;7.96;86.16;102790.97;5340407;27;20121;-62
2022/04/29 01:03:27;;;;;;;17.45;7.72;;;;;;;7.92;86.06;102799.09;5346927;27;20033;-62
2022/04/29 01:05:58;;;;;;;14.98;8.35;;;;;;;7.85;86.39;102798.44;5347594;27;20034;-62
2022/04/29 01:08:30;;;;;;;19.52;8.70;;;;;;;7.78;87.28;102796.91;5342623;27;20847;-62
2022/04/29 01:11:02;;;;;;;19.17;8.70;;;;;;;7.85;86.98;102790.47;5341221;27;20049;-62
2022/04/29 01:13:34;;;;;;;15.35;8.10;;;;;;;7.82;87.07;102786.16;5338406;27;20035;-62
2022/04/29 01:16:06;;;;;;;14.93;8.20;;;;;;;7.79;87.52;102785.38;5342502;27;20034;-62
2022/04/29 01:18:38;;;;;;;16.25;7.75;;;;;;;7.70;86.86;102783.88;5339381;27;20324;-62
2022/04/29 01:21:09;;;;;;;17.90;8.45;;;;;;;7.81;88.04;102781.72;5339534;27;20038;-62
2022/04/29 01:23:43;;;;;;;11.35;7.28;;;;;;;7.72;86.29;102774.06;5335728;27;20550;-62
2022/04/29 01:26:15;;;;;;;17.88;8.38;;;;;;;7.65;86.47;102764.56;5343789;27;20037;-62
2022/04/29 01:28:46;;;;;;;14.55;7.90;;;;;;;7.64;86.38;102763.69;5337671;27;20031;-62
2022/04/29 01:31:22;;;;;;;12.65;8.02;;;;;;;7.62;86.74;102760.22;5339884;27;20037;-62
2022/04/29 01:33:54;;;;;;;12.75;8.02;;;;;;;7.53;86.82;102755.22;5346709;27;20113;-62
2022/04/29 01:36:26;;;;;;;15.93;7.68;;;;;;;7.56;87.66;102760.44;5351074;27;20468;-62
2022/04/29 01:38:57;;;;;;;15.23;7.93;;;;;;;7.48;88.18;102749.19;5348357;27;20037;-62
2022/04/29 01:41:28;;;;;;;13.63;7.72;;;;;;;7.50;86.90;102760.63;5340639;27;20059;-62
2022/04/29 01:44:00;;;;;;;13.90;7.60;;;;;;;7.44;87.27;102759.06;5339824;27;20030;-62
2022/04/29 01:46:31;;;;;;;14.95;8.13;;;;;;;7.45;87.49;102759.91;5341615;27;20145;-62
2022/04/29 01:49:02;;;;;;;16.63;8.05;;;;;;;7.37;87.60;102752.19;5352456;27;20023;-62
2022/04/29 01:51:34;;;;;;;14.50;8.45;;;;;;;7.38;88.05;102745.09;5348980;27;20075;-62
2022/04/29 01:54:09;;;;;;;13.52;7.97;;;;;;;7.37;87.89;102744.22;5343074;27;20054;-62
2022/04/29 01:56:41;;;;;;;13.50;7.93;;;;;;;7.40;88.11;102748.56;5346733;27;20039;-62
2022/04/29 01:59:12;;;;;;;16.17;8.13;;;;;;;7.29;88.11;102748.03;5345583;27;20076;-62
2022/04/29 02:01:44;;;;;;;17.08;9.00;;;;;;;7.37;89.04;102749.53;5351177;27;20109;-62
2022/04/29 02:04:15;;;;;;;17.02;8.93;;;;;;;7.22;88.54;102750.03;5343906;27;20030;-62
2022/04/29 02:06:46;;;;;;;13.90;8.73;;;;;;;7.30;89.57;102755.09;5348799;27;20113;-62
2022/04/29 02:09:18;;;;;;;20.13;9.18;;;;;;;7.25;88.55;102747.28;5344475;27;20026;-62
2022/04/29 02:12:05;;;;;;;16.75;9.02;;;;;;;7.23;89.99;102741.16;5345212;27;20031;-62
2022/04/29 02:14:39;;;;;;;19.17;9.48;;;;;;;7.12;89.39;102746.81;5344712;27;20023;-62
2022/04/29 02:17:11;;;;;;;16.55;8.73;;;;;;;7.06;89.18;102747.84;5346259;27;20479;-62
2022/04/29 02:19:42;;;;;;;16.15;8.65;;;;;;;7.09;89.67;102746.88;5344743;27;20130;-62
2022/04/29 02:22:13;;;;;;;18.90;8.23;;;;;;;7.12;89.77;102743.28;5347721;27;20023;-62
2022/04/29 02:24:44;;;;;;;20.42;8.60;;;;;;;7.04;89.83;102746.19;5345416;27;20111;-62
2022/04/29 02:27:16;;;;;;;17.98;8.88;;;;;;;6.99;89.41;102746.31;5342763;27;20033;-62
2022/04/29 02:29:47;;;;;;;15.82;8.38;;;;;;;7.04;90.57;102744.38;5344132;27;20026;-62
2022/04/29 02:32:18;;;;;;;17.40;8.70;;;;;;;6.96;89.60;102734.91;5343413;27;21351;-62
2022/04/29 02:34:49;;;;;;;17.00;9.13;;;;;;;7.06;89.43;102742.56;5345036;27;20031;-62
2022/04/29 02:37:21;;;;;;;16.02;8.35;;;;;;;6.97;89.69;102736.66;5348635;27;20102;-62
2022/04/29 02:39:52;;;;;;;16.92;9.05;;;;;;;6.95;89.94;102733.19;5345955;27;20111;-62
2022/04/29 02:42:23;;;;;;;14.90;8.25;;;;;;;6.94;90.17;102734.09;5349529;27;20027;-62
2022/04/29 02:44:54;;;;;;;16.08;8.65;;;;;;;6.87;90.15;102734.28;5344878;27;20400;-62
2022/04/29 02:47:26;;;;;;;15.60;9.18;;;;;;;6.92;90.58;102731.47;5345578;27;20473;-62
2022/04/29 02:49:58;;;;;;;15.68;8.32;;;;;;;6.89;90.52;102738.69;5348464;27;20132;-62
2022/04/29 02:52:29;;;;;;;17.77;9.50;;;;;;;6.90;90.58;102730.66;5349713;27;21297;-62
2022/04/29 02:55:00;;;;;;;16.52;8.85;;;;;;;6.93;91.65;102735.03;5344637;27;20023;-62
2022/04/29 02:57:31;;;;;;;13.10;8.98;;;;;;;6.98;90.60;102735.72;5341948;27;20747;-62
2022/04/29 03:00:04;;;;;;;16.65;9.40;;;;;;;6.98;90.63;102731.31;5341652;27;20485;-63
2022/04/29 03:02:35;;;;;;;17.35;9.20;;;;;;;6.87;90.50;102734.28;5341514;27;20049;-62
2022/04/29 03:05:07;;;;;;;17.15;9.65;;;;;;;6.86;90.68;102724.59;5339632;27;20026;-62
2022/04/29 03:07:38;;;;;;;21.90;10.07;;;;;;;6.83;90.35;102726.47;5338707;27;20026;-62
2022/04/29 03:10:10;;;;;;;16.58;8.90;;;;;;;6.90;89.93;102713.88;5339488;27;20377;-62
2022/04/29 03:12:41;;;;;;;16.80;8.93;;;;;;;6.95;89.88;102711.97;5344201;27;20026;-62
2022/04/29 03:15:18;;;;;;;16.67;9.05;;;;;;;6.93;90.50;102716.44;5346108;27;20096;-62
2022/04/29 03:20:41;;;;;;;19.10;9.52;;;;;;;6.97;90.29;102695.06;5339198;27;20027;-62
2022/04/29 03:23:12;;;;;;;14.00;8.32;;;;;;;7.00;91.96;102691.44;5341940;27;20497;-62
2022/04/29 03:25:44;;;;;;;13.95;8.70;;;;;;;6.95;90.94;102706.66;5342092;27;20030;-62
2022/04/29 03:28:15;;;;;;;17.13;9.30;;;;;;;6.80;90.49;102711.50;5344663;27;20381;-63
2022/04/29 03:30:47;;;;;;;16.25;9.90;;;;;;;6.77;90.43;102710.72;5336738;27;20496;-63
2022/04/29 03:33:18;;;;;;;17.42;10.45;;;;;;;6.82;91.83;102714.13;5341224;27;20036;-62
2022/04/29 03:35:50;;;;;;;18.58;10.05;;;;;;;6.80;92.19;102715.94;5342316;27;20444;-62
2022/04/29 03:38:21;;;;;;;16.80;9.57;;;;;;;6.79;90.67;102724.84;5345051;27;20461;-62
2022/04/29 03:40:53;;;;;;;17.63;9.93;;;;;;;6.63;90.89;102733.22;5343805;27;20031;-62
2022/04/29 03:43:25;;;;;;;16.58;10.00;;;;;;;6.64;91.08;102731.47;5343559;27;20126;-62
2022/04/29 03:45:56;;;;;;;20.25;10.85;;;;;;;6.58;91.09;102723.69;5341448;27;20041;-62
2022/04/29 03:48:27;;;;;;;19.42;10.27;;;;;;;6.64;91.12;102718.19;5349421;27;20023;-62
2022/04/29 03:50:59;;;;;;;19.13;10.50;;;;;;;6.62;92.08;102709.44;5343125;27;20024;-62
2022/04/29 03:53:31;;;;;;;18.92;10.20;;;;;;;6.55;91.66;102703.41;5340234;27;20031;-62
2022/04/29 03:56:02;;;;;;;20.92;10.73;;;;;;;6.53;91.59;102709.69;5337206;27;20034;-62
2022/04/29 03:58:33;;;;;;;21.58;10.07;;;;;;;6.65;91.57;102718.16;5334331;27;20484;-63
2022/04/29 04:01:04;;;;;;;20.52;10.70;;;;;;;6.65;93.10;102719.91;5336533;27;20042;-62
2022/04/29 04:03:36;;;;;;;19.10;10.55;;;;;;;6.69;92.50;102713.59;5340166;27;20089;-63
2022/04/29 04:08:57;;;;;;;17.15;10.20;;;;;;;6.62;93.07;102712.06;5335407;27;20138;-63
2022/04/29 04:11:28;;;;;;;20.77;10.70;;;;;;;6.48;92.55;102710.69;5333986;27;20026;-62
2022/04/29 04:13:59;;;;;;;15.77;10.52;;;;;;;6.42;92.28;102712.66;5341661;27;20034;-62
2022/04/29 04:16:31;;;;;;;21.90;10.80;;;;;;;6.53;92.42;102707.03;5341797;27;20019;-62
2022/04/29 04:19:03;;;;;;;20.13;10.88;;;;;;;6.51;92.19;102708.88;5343752;27;20126;-62
2022/04/29 04:21:34;;;;;;;18.17;10.25;;;;;;;6.48;91.95;102707.16;5335376;27;20081;-62
2022/04/29 04:24:07;;;;;;;18.58;10.45;;;;;;;6.49;92.78;102703.59;5337116;27;20145;-62
2022/04/29 04:26:38;;;;;;;18.48;10.68;;;;;;;6.60;93.51;102695.34;5334199;27;20039;-62
2022/04/29 04:29:09;;;;;;;17.42;10.63;;;;;;;6.61;92.95;102695.28;5336210;27;20103;-62
2022/04/29 04:31:40;;;;;;;21.65;11.40;;;;;;;6.59;93.47;102706.84;5339174;27;20038;-62
2022/04/29 04:37:03;;;;;;;20.00;10.57;;;;;;;6.66;93.26;102703.09;5351489;27;20474;-62
2022/04/29 04:39:34;;;;;;;20.27;11.05;;;;;;;6.61;93.31;102705.03;5350461;27;20023;-62
2022/04/29 04:42:06;;;;;;;21.83;11.02;;;;;;;6.52;92.55;102697.31;5338897;27;20545;-63
2022/04/29 04:44:37;;;;;;;21.23;10.90;;;;;;;6.63;93.41;102700.53;5346266;27;20083;-62
2022/04/29 04:47:09;;;;;;;19.85;10.82;;;;;;;6.63;93.80;102685.47;5348199;27;20034;-62
2022/04/29 04:49:40;;;;;;;20.48;10.80;;;;;;;6.64;94.01;102692.53;5342278;27;20099;-62
2022/04/29 04:52:12;;;;;;;21.58;11.45;;;;;;;6.71;94.50;102695.00;5341617;27;20035;-62
2022/04/29 04:54:43;;;;;;;18.50;11.30;;;;;;;6.61;92.33;102697.06;5342449;27;20033;-62
2022/04/29 04:57:14;;;;;;;20.55;11.95;;;;;;;6.61;92.84;102694.41;5340611;27;20503;-62
2022/04/29 04:59:46;;;;;;;23.88;11.50;;;;;;;6.67;92.25;102697.75;5341580;27;20033;-62
2022/04/29 05:02:17;;;;;;;22.02;11.90;;;;;;;6.62;92.63;102694.38;5335632;27;20431;-62
2022/04/29 05:04:48;;;;;;;20.10;11.18;;;;;;;6.70;93.05;102694.13;5342580;27;20035;-62
2022/04/29 05:07:19;;;;;;;20.02;11.27;;;;;;;6.64;91.98;102692.53;5345521;27;20163;-62
2022/04/29 05:09:51;;;;;;;20.73;11.20;;;;;;;6.73;91.79;102695.81;5342029;27;20560;-62
2022/04/29 05:12:22;;;;;;;23.20;11.63;;;;;;;6.67;92.47;102697.75;5335867;27;20157;-62
2022/04/29 05:14:53;;;;;;;18.30;10.93;;;;;;;6.77;93.39;102687.75;5347039;27;20031;-62
2022/04/29 05:17:24;;;;;;;23.77;11.85;;;;;;;6.72;92.16;102689.66;5343166;27;20655;-62
2022/04/29 05:19:56;;;;;;;18.83;11.27;;;;;;;6.65;91.46;102693.41;5344176;27;20054;-62
2022/04/29 05:22:30;;;;;;;22.23;11.15;;;;;;;6.60;91.74;102698.84;5335231;27;20034;-62
2022/04/29 05:25:01;;;;;;;;;;;;;;;6.72;90.64;102700.25;5339384;27;20035;-62
2022/04/29 05:27:33;;;;;;;21.48;11.82;;;;;;;6.63;91.96;102690.78;5340932;27;20338;-62
2022/04/29 05:30:05;;;;;;;22.33;11.23;;;;;;;6.70;92.03;102702.09;5343256;27;20034;-62
2022/04/29 05:32:38;;;;;;;20.10;12.02;;;;;;;6.71;92.30;102703.81;5341782;27;20029;-62
2022/04/29 05:35:10;;;;;;;20.92;12.23;;;;;;;6.72;91.69;102696.75;5352680;27;20461;-62
2022/04/29 05:37:41;;;;;;;17.10;11.73;;;;;;;6.71;91.08;102695.84;5347526;27;20031;-62
2022/04/29 05:43:02;;;;;;;22.05;11.95;;;;;;;6.79;91.09;102700.97;5347827;27;20133;-62
2022/04/29 05:45:33;;;;;;;19.00;11.98;;;;;;;6.80;91.01;102692.94;5346260;27;20039;-62
2022/04/29 05:48:05;;;;;;;23.23;12.30;;;;;;;6.82;91.27;102701.72;5349189;27;20365;-62
2022/04/29 05:50:36;;;;;;;20.60;11.88;;;;;;;6.95;91.79;102711.97;5345522;27;20104;-62
2022/04/29 05:53:07;;;;;;;19.45;11.25;;;;;;;6.85;90.56;102712.25;5342838;27;20043;-62
2022/04/29 05:55:39;;;;;;;21.20;11.80;;;;;;;7.01;91.12;102715.28;5344601;27;20031;-62
2022/04/29 05:58:10;;;;;;;25.77;12.40;;;;;;;7.01;89.88;102722.38;5341535;27;20082;-62
2022/04/29 06:00:41;;;;;;;24.02;12.60;;;;;;;7.11;90.29;102723.81;5341410;27;20748;-62
2022/04/29 06:03:12;;;;;;;26.65;12.13;;;;;;;7.15;91.20;102716.63;5342040;27;20511;-62
2022/04/29 06:05:44;;;;;;;19.98;11.93;;;;;;;7.25;92.16;102720.75;5344091;27;20034;-62
2022/04/29 06:08:15;;;;;;;26.52;12.85;;;;;;;7.33;92.43;102717.84;5342943;27;20552;-62
2022/04/29 06:10:46;;;;;;;22.85;13.35;;;;;;;7.29;90.62;102721.47;5344590;27;20145;-62
2022/04/29 06:13:17;;;;;;;22.80;12.57;;;;;;;7.32;89.52;102722.25;5340214;27;20027;-62
2022/04/29 06:15:49;;;;;;;18.23;12.20;;;;;;;7.43;88.42;102728.09;5341960;27;20073;-62
2022/04/29 06:18:20;;;;;;;18.30;11.65;;;;;;;7.52;90.55;102724.28;5340626;27;20125;-62
2022/04/29 06:20:53;;;;;;;20.35;11.57;;;;;;;7.55;89.20;102723.28;5346654;27;20035;-62
2022/04/29 06:23:24;;;;;;;25.08;12.40;;;;;;;7.56;87.97;102725.91;5348342;27;20069;-62
2022/04/29 06:25:56;;;;;;;21.23;12.10;;;;;;;7.54;87.29;102726.88;5350460;27;20503;-62
2022/04/29 06:28:27;;;;;;;21.00;12.77;;;;;;;7.58;88.26;102724.06;5344331;27;20380;-62
2022/04/29 06:30:59;;;;;;;24.70;12.70;;;;;;;7.61;87.17;102731.94;5345450;27;20099;-62
2022/04/29 06:33:30;;;;;;;21.80;12.82;;;;;;;7.75;88.96;102734.13;5347602;27;20105;-62
2022/04/29 06:36:02;;;;;;;22.92;12.90;;;;;;;7.79;87.81;102737.53;5352133;27;20029;-62
2022/04/29 06:38:33;;;;;;;19.60;12.05;;;;;;;7.91;86.49;102737.09;5350762;27;20034;-62
2022/04/29 06:41:05;;;;;;;18.13;12.05;;;;;;;8.04;87.47;102746.38;5348741;27;20449;-62
2022/04/29 06:43:36;;;;;;;24.98;11.95;;;;;;;8.14;88.06;102743.41;5353052;27;20027;-62
2022/04/29 06:46:08;;;;;;;21.35;12.25;;;;;;;8.24;86.88;102729.69;5351860;27;20034;-62
2022/04/29 06:48:39;;;;;;;21.55;12.27;;;;;;;8.29;86.60;102737.53;5351075;27;20452;-63
2022/04/29 06:51:11;;;;;;;27.85;13.70;;;;;;;8.38;86.54;102731.88;5347676;27;20030;-63
2022/04/29 06:53:43;;;;;;;23.55;12.63;;;;;;;8.37;86.40;102742.56;5344502;27;20027;-63
2022/04/29 06:56:14;;;;;;;23.23;12.60;;;;;;;8.48;84.67;102737.75;5344540;27;20055;-62
2022/04/29 06:58:45;;;;;;;22.38;12.82;;;;;;;8.42;83.90;102744.16;5345100;27;20066;-62
2022/04/29 07:01:17;;;;;;;18.83;12.60;;;;;;;8.47;83.30;102745.78;5346073;27;20297;-62
2022/04/29 07:03:48;;;;;;;22.58;12.25;;;;;;;8.52;84.40;102744.69;5344107;27;20539;-62
2022/04/29 07:06:19;;;;;;;21.00;12.10;;;;;;;8.68;83.76;102755.63;5346623;27;20031;-62
2022/04/29 07:08:51;;;;;;;23.75;12.40;;;;;;;8.70;83.98;102748.44;5347380;27;20045;-62
2022/04/29 07:11:22;;;;;;;26.55;12.73;;;;;;;8.63;83.04;102744.31;5348445;27;20019;-63
2022/04/29 07:13:53;;;;;;;25.35;12.52;;;;;;;8.78;82.02;102751.72;5351381;27;20448;-63
2022/04/29 07:16:24;;;;;;;21.60;13.02;;;;;;;8.82;81.91;102749.75;5342866;27;20509;-62
2022/04/29 07:18:57;;;;;;;24.67;14.00;;;;;;;8.92;82.81;102748.50;5347851;27;20039;-62
2022/04/29 07:21:28;;;;;;;21.42;13.00;;;;;;;8.94;82.44;102741.31;5350117;27;20453;-63
2022/04/29 07:23:59;;;;;;;22.65;11.82;;;;;;;9.12;83.83;102742.38;5346138;27;20027;-63
2022/04/29 07:26:31;;;;;;;21.92;13.13;;;;;;;9.14;81.10;102742.31;5345120;27;20023;-63
2022/04/29 07:29:02;;;;;;;19.63;11.93;;;;;;;9.30;81.78;102747.88;5350253;27;20053;-62
2022/04/29 07:31:34;;;;;;;24.15;13.32;;;;;;;9.52;81.67;102745.22;5347960;27;20030;-63
2022/04/29 07:34:05;;;;;;;20.38;13.07;;;;;;;9.67;80.41;102738.41;5346838;27;20072;-63
2022/04/29 07:42:16;;;;;;;21.85;12.27;;;;;;;9.76;77.98;102736.19;5347615;27;20121;-62
2022/04/29 07:44:47;;;;;;;21.33;12.48;;;;;;;9.79;77.15;102738.72;5350262;27;20031;-62
2022/04/29 07:47:18;;;;;;;20.40;12.70;;;;;;;9.92;77.42;102735.53;5349147;27;20058;-62
2022/04/29 07:49:49;;;;;;;25.42;13.10;;;;;;;10.01;77.27;102740.47;5354985;27;20035;-65
2022/04/29 07:52:21;;;;;;;23.67;12.60;;;;;;;10.26;76.87;102739.38;5351054;27;20026;-62
2022/04/29 07:54:53;;;;;;;23.05;13.48;;;;;;;10.26;75.69;102745.59;5347510;27;20029;-62
2022/04/29 07:57:24;;;;;;;20.63;12.55;;;;;;;10.36;75.80;102738.06;5348950;27;20035;-63
2022/04/29 07:59:55;;;;;;;23.83;13.45;;;;;;;10.54;75.20;102739.03;5345996;27;20062;-62
2022/04/29 08:02:26;;;;;;;22.05;13.43;;;;;;;10.54;74.66;102749.69;5349083;27;20034;-62
2022/04/29 08:04:57;;;;;;;23.83;13.13;;;;;;;10.59;73.73;102748.56;5350069;27;20304;-62
2022/04/29 08:07:29;;;;;;;22.67;12.88;;;;;;;10.47;73.21;102756.25;5331216;27;20030;-62
2022/04/29 08:10:00;;;;;;;22.67;13.02;;;;;;;10.62;75.36;102752.88;5351538;27;20083;-62
2022/04/29 08:12:32;;;;;;;21.60;12.63;;;;;;;10.63;73.66;102754.63;5351371;27;20039;-63
2022/04/29 08:15:05;;;;;;;23.83;12.00;;;;;;;10.86;74.83;102747.34;5350707;27;20027;-62
2022/04/29 08:17:39;;;;;;;23.00;12.65;;;;;;;10.92;73.46;102744.38;5331836;27;20027;-62
2022/04/29 08:20:11;;;;;;;25.63;12.48;;;;;;;10.95;73.63;102749.59;5347974;27;20074;-62
2022/04/29 08:22:42;;;;;;;25.15;12.27;;;;;;;11.20;72.68;102746.59;5348212;27;20031;-62
2022/04/29 08:25:15;;;;;;;24.55;13.48;;;;;;;11.30;72.01;102757.72;5348925;27;20034;-62
2022/04/29 08:27:47;;;;;;;22.48;13.43;;;;;;;11.37;72.29;102757.34;5349295;27;20027;-62
2022/04/29 08:30:18;;;;;;;21.13;12.32;;;;;;;11.36;71.76;102749.38;5349132;27;20045;-62
2022/04/29 08:32:50;;;;;;;23.63;13.30;;;;;;;11.54;71.40;102761.84;5343546;27;20043;-62
2022/04/29 08:35:21;;;;;;;20.33;12.50;;;;;;;11.49;71.90;102763.88;5344885;27;20079;-62
2022/04/29 08:37:57;;;;;;;20.60;12.75;;;;;;;11.42;71.31;102761.56;5348930;27;20034;-63
2022/04/29 08:40:28;;;;;;;20.50;12.38;;;;;;;11.39;70.37;102757.25;5348463;27;20473;-62
2022/04/29 08:43:04;;;;;;;21.98;13.57;;;;;;;11.40;73.25;102756.31;5354734;27;20039;-62
2022/04/29 08:45:36;;;;;;;21.38;13.20;;;;;;;11.41;73.02;102752.72;5348287;27;20030;-62
2022/04/29 08:48:08;;;;;;;22.02;12.90;;;;;;;11.36;70.89;102750.25;5347665;27;20414;-62
2022/04/29 08:50:39;;;;;;;19.42;12.40;;;;;;;11.43;71.79;102761.50;5344652;27;20043;-62
2022/04/29 08:53:10;;;;;;;24.90;12.80;;;;;;;11.67;71.26;102761.22;5349289;27;20045;-62
2022/04/29 08:58:40;;;;;;;24.75;12.27;;;;;;;11.90;72.26;102742.22;5349967;27;20031;-62
2022/04/29 09:01:13;;;;;;;21.52;12.82;;;;;;;11.92;70.82;102734.97;5349111;27;20109;-62
2022/04/29 09:03:46;;;;;;;21.13;13.85;;;;;;;12.11;72.51;102731.34;5346480;27;20523;-63
2022/04/29 09:06:17;;;;;;;22.85;13.45;;;;;;;12.09;68.91;102725.22;5343134;27;20943;-62
2022/04/29 09:08:49;;;;;;;22.05;12.45;;;;;;;12.04;68.50;102741.53;5346421;27;20067;-63
2022/04/29 09:11:26;;;;;;;21.25;12.88;;;;;;;12.04;69.36;102757.56;5346036;27;20038;-62
2022/04/29 09:13:57;;;;;;;20.33;12.55;;;;;;;11.96;68.68;102752.59;5348884;27;20023;-63
2022/04/29 09:16:29;;;;;;;19.55;12.35;;;;;;;11.93;67.67;102749.22;5348569;27;20538;-62
2022/04/29 09:19:02;;;;;;;26.08;13.00;;;;;;;11.94;68.88;102754.47;5350518;27;20050;-63
2022/04/29 09:21:33;;;;;;;22.13;13.43;;;;;;;12.19;69.06;102755.88;5346910;27;20027;-62
2022/04/29 09:24:07;;;;;;;24.02;13.98;;;;;;;12.31;69.06;102746.31;5351752;27;20038;-63
2022/04/29 09:26:39;;;;;;;23.10;12.90;;;;;;;12.39;69.54;102752.16;5349196;27;20133;-63
2022/04/29 09:29:13;;;;;;;22.02;12.50;;;;;;;12.49;70.04;102763.22;5349778;27;20027;-63
2022/04/29 09:32:01;;;;;;;21.48;12.45;;;;;;;12.71;69.80;102763.81;5349137;27;20473;-63
2022/04/29 09:34:51;;;;;;;17.27;11.82;;;;;;;12.75;69.24;102765.38;5348168;27;20026;-63
2022/04/29 09:37:28;;;;;;;19.02;12.73;;;;;;;12.89;67.34;102769.94;5348431;27;20027;-63
2022/04/29 09:40:03;;;;;;;18.85;12.23;;;;;;;12.91;68.17;102769.88;5349563;27;20018;-63
2022/04/29 09:42:43;;;;;;;21.95;12.30;;;;;;;12.85;68.65;102770.22;5348742;27;20483;-63
2022/04/29 09:45:21;;;;;;;22.08;12.68;;;;;;;12.59;68.33;102767.13;5349140;27;20289;-63
2022/04/29 09:47:59;;;;;;;20.50;12.05;;;;;;;12.81;67.17;102764.16;5349437;27;20150;-63
2022/04/29 09:50:50;;;;;;;20.38;12.05;;;;;;;12.55;68.05;102760.22;5347518;27;20430;-62
2022/04/29 09:53:26;;;;;;;21.27;12.60;;;;;;;12.47;67.94;102749.06;5350328;27;20023;-62
2022/04/29 09:56:06;;;;;;;19.55;12.05;;;;;;;12.36;68.40;102742.47;5346155;27;20038;-62
2022/04/29 09:58:37;;;;;;;21.67;11.88;;;;;;;12.27;67.70;102753.69;5346328;27;20018;-62
2022/04/29 10:01:10;;;;;;;20.58;12.23;;;;;;;12.19;67.72;102747.84;5346352;27;20035;-62
2022/04/29 10:03:41;;;;;;;21.42;12.40;;;;;;;12.35;68.18;102740.75;5345953;27;20030;-63
2022/04/29 10:06:13;;;;;;;22.70;11.95;;;;;;;12.25;68.82;102739.50;5345881;27;20129;-62
2022/04/29 10:08:46;;;;;;;27.33;14.02;;;;;;;12.19;69.55;102745.19;5344866;27;20021;-63
2022/04/29 10:11:21;;;;;;;17.20;12.60;;;;;;;12.33;69.16;102752.47;5345129;27;20023;-62
2022/04/29 10:13:53;;;;;;;23.48;13.02;;;;;;;12.32;69.53;102740.03;5345284;27;20027;-62
2022/04/29 10:16:29;;;;;;;21.48;12.75;;;;;;;12.47;69.62;102741.91;5345325;27;20275;-62
2022/04/29 10:22:03;;;;;;;21.70;12.75;;;;;;;12.51;68.61;102737.25;5344636;27;20043;-62
2022/04/29 10:24:34;;;;;;;18.50;12.27;;;;;;;12.50;68.10;102722.09;5345855;27;20029;-62
2022/04/29 10:27:06;;;;;;;20.23;12.48;;;;;;;12.49;70.07;102731.09;5341955;27;20031;-62
2022/04/29 10:29:37;;;;;;;24.17;13.15;;;;;;;12.54;69.02;102734.38;5328504;27;20026;-62
2022/04/29 10:32:10;;;;;;;21.13;12.68;;;;;;;12.56;68.37;102724.47;5344814;27;20465;-62
2022/04/29 10:34:41;;;;;;;18.27;12.23;;;;;;;12.64;68.00;102735.63;5343000;27;20052;-62
2022/04/29 10:37:13;;;;;;;22.02;12.85;;;;;;;12.52;67.93;102726.47;5343748;27;20150;-62
2022/04/29 10:40:11;;;;;;;20.92;13.10;;;;;;;12.72;68.69;102732.53;5344963;27;20030;-62
2022/04/29 10:43:05;;;;;;;21.67;12.88;;;;;;;12.63;67.08;102727.66;5342228;27;20027;-62
2022/04/29 10:46:05;;;;;;;21.50;11.80;;;;;;;12.64;68.30;102732.94;5341059;27;20034;-62
2022/04/29 10:48:38;;;;;;;18.13;11.70;;;;;;;12.68;67.66;102734.50;5343165;27;20023;-62
2022/04/29 10:51:27;;;;;;;21.98;12.57;;;;;;;12.76;69.16;102734.06;5342958;27;20035;-63
2022/04/29 10:53:58;;;;;;;23.52;12.45;;;;;;;12.82;67.29;102722.16;5343455;27;21099;-62
2022/04/29 10:56:30;;;;;;;23.33;13.00;;;;;;;13.00;67.60;102731.84;5349176;27;20030;-62
2022/04/29 10:59:04;;;;;;;19.58;11.88;;;;;;;12.98;67.37;102724.81;5343396;27;20030;-62
2022/04/29 11:01:37;;;;;;;24.63;11.80;;;;;;;12.98;66.63;102717.66;5343274;27;20045;-62
2022/04/29 11:04:14;;;;;;;19.55;11.40;;;;;;;13.00;66.69;102712.22;5344119;27;20066;-62
2022/04/29 11:06:46;;;;;;;21.75;11.13;;;;;;;12.97;67.24;102710.56;5341603;27;20038;-63
2022/04/29 11:09:28;;;;;;;21.85;11.40;;;;;;;12.87;66.91;102709.38;5343633;27;20011;-63
2022/04/29 11:12:00;;;;;;;23.35;11.38;;;;;;;12.91;67.46;102708.25;5342131;27;20031;-62
2022/04/29 11:15:10;;;;;;;20.25;11.68;;;;;;;12.89;67.14;102707.47;5344467;27;20094;-62
2022/04/29 11:17:42;;;;;;;21.30;11.30;;;;;;;12.82;66.46;102711.44;5345261;27;20040;-63
2022/04/29 11:20:15;;;;;;;22.30;10.70;;;;;;;12.73;66.63;102718.16;5340996;27;20023;-63
2022/04/29 11:25:55;;;;;;;23.63;11.27;;;;;;;12.90;66.83;102710.03;5343672;27;20038;-63
2022/04/29 11:28:27;;;;;;;21.15;10.75;;;;;;;13.08;67.88;102712.66;5341616;27;20527;-62
2022/04/29 11:31:04;;;;;;;18.67;11.20;;;;;;;13.10;66.91;102710.75;5343957;27;20465;-62
2022/04/29 11:33:37;;;;;;;16.40;10.65;;;;;;;13.17;66.12;102700.53;5343537;27;20022;-62
2022/04/29 11:36:11;;;;;;;23.20;11.93;;;;;;;13.29;66.55;102695.31;5344958;27;20705;-62
2022/04/29 11:38:47;;;;;;;16.38;10.52;;;;;;;13.50;65.18;102695.91;5339828;27;20058;-62
2022/04/29 11:41:27;;;;;;;17.83;10.55;;;;;;;13.57;64.93;102700.91;5348529;27;20026;-63
2022/04/29 11:43:58;;;;;;;20.92;10.98;;;;;;;13.58;64.43;102690.09;5344965;27;20050;-63
2022/04/29 11:46:30;;;;;;;22.33;11.95;;;;;;;13.71;65.25;102698.25;5351816;27;20109;-63
2022/04/29 11:49:01;;;;;;;25.05;11.23;;;;;;;13.76;63.62;102703.34;5353772;27;20578;-63
2022/04/29 11:51:34;;;;;;;18.70;9.75;;;;;;;13.93;65.86;102697.81;5352286;27;20057;-63
2022/04/29 11:54:06;;;;;;;20.17;10.60;;;;;;;14.14;62.68;102690.28;5354242;27;20125;-63
2022/04/29 11:56:39;;;;;;;15.68;9.52;;;;;;;14.26;62.71;102700.22;5350355;27;20392;-63
2022/04/29 11:59:11;;;;;;;17.05;9.60;;;;;;;14.47;61.85;102689.97;5350716;27;20452;-63
2022/04/29 12:01:43;;;;;;;18.80;10.88;;;;;;;14.57;61.93;102692.94;5350318;27;20057;-63
2022/04/29 12:04:14;;;;;;;15.20;9.50;;;;;;;14.76;61.29;102700.69;5354360;27;20079;-63
2022/04/29 12:06:55;;;;;;;15.30;9.70;;;;;;;14.76;59.63;102703.38;5351085;27;20049;-63
2022/04/29 12:09:34;;;;;;;14.32;9.07;;;;;;;14.57;59.78;102701.00;5354501;27;20023;-63